Time;durP1;ratioP1;P1;durP2;ratioP2;P2;SDS_P1;SDS_P2;PMS_P1;PMS_P2;Temp;Humidity;BMP_temperature;BMP_pressure;BME280_temperature;BME280_humidity;BME280_pressure;Samples;Min_cycle;Max_cycle;Signal;HPM_P1;HPM_P2
2022/05/18 00:01:39;;;;;;;0.00;0.00;;;;;;;;;;4181134;28;20064;-36
2022/05/18 00:03:42;;;;;;;0.20;0.13;;;;;;;;;;4181168;28;20063;-39
2022/05/18 00:05:45;;;;;;;0.55;0.10;;;;;;;;;;4180550;28;20510;-41
2022/05/18 00:07:46;;;;;;;0.15;0.15;;;;;;;;;;4181325;28;20471;-42
2022/05/18 00:09:49;;;;;;;0.20;0.20;;;;;;;;;;4179660;28;20171;-39
2022/05/18 00:11:50;;;;;;;0.00;0.00;;;;;;;;;;4181491;28;20044;-41
2022/05/18 00:13:52;;;;;;;0.10;0.10;;;;;;;;;;4180856;28;20099;-41
2022/05/18 00:15:54;;;;;;;0.10;0.10;;;;;;;;;;4181341;28;20045;-42
2022/05/18 00:17:55;;;;;;;0.10;0.00;;;;;;;;;;4179737;28;20056;-39
2022/05/18 00:19:56;;;;;;;0.10;0.08;;;;;;;;;;4180695;28;20098;-42
2022/05/18 00:21:57;;;;;;;0.38;0.10;;;;;;;;;;4181339;28;20053;-41
2022/05/18 00:23:58;;;;;;;0.10;0.10;;;;;;;;;;4180760;28;20648;-41
2022/05/18 00:25:59;;;;;;;0.10;0.10;;;;;;;;;;4180903;28;20045;-41
2022/05/18 00:28:01;;;;;;;0.10;0.10;;;;;;;;;;4179590;28;20049;-41
2022/05/18 00:30:03;;;;;;;0.08;0.08;;;;;;;;;;4180201;28;20114;-42
2022/05/18 00:32:04;;;;;;;0.20;0.10;;;;;;;;;;4179526;28;20417;-41
2022/05/18 00:34:05;;;;;;;0.05;0.05;;;;;;;;;;4179534;28;20090;-42
2022/05/18 00:36:06;;;;;;;0.20;0.08;;;;;;;;;;4180704;28;20049;-41
2022/05/18 00:38:07;;;;;;;0.20;0.10;;;;;;;;;;4180689;28;20110;-42
2022/05/18 00:40:10;;;;;;;0.10;0.10;;;;;;;;;;4179769;28;20049;-39
2022/05/18 00:42:21;;;;;;;0.00;0.00;;;;;;;;;;4180666;28;20385;-40
2022/05/18 00:44:22;;;;;;;0.00;0.00;;;;;;;;;;4179961;28;20118;-41
2022/05/18 00:46:23;;;;;;;0.35;0.10;;;;;;;;;;4180449;28;20092;-42
2022/05/18 00:48:24;;;;;;;0.10;0.10;;;;;;;;;;4180599;28;20098;-41
2022/05/18 00:50:31;;;;;;;0.10;0.10;;;;;;;;;;4180076;28;20122;-40
2022/05/18 00:52:35;;;;;;;0.20;0.10;;;;;;;;;;4180226;28;20322;-43
2022/05/18 00:54:36;;;;;;;0.10;0.10;;;;;;;;;;4180810;28;20098;-40
2022/05/18 00:56:50;;;;;;;0.10;0.10;;;;;;;;;;4180340;28;20041;-41
2022/05/18 00:58:57;;;;;;;0.10;0.10;;;;;;;;;;4179863;28;20382;-42
2022/05/18 01:00:59;;;;;;;0.10;0.10;;;;;;;;;;4179894;28;20468;-42
2022/05/18 01:03:04;;;;;;;0.10;0.10;;;;;;;;;;4180182;28;20060;-42
2022/05/18 01:05:07;;;;;;;0.10;0.10;;;;;;;;;;4179059;28;20514;-42
2022/05/18 01:07:10;;;;;;;0.05;0.05;;;;;;;;;;4195499;28;20515;-41
2022/05/18 01:09:15;;;;;;;0.10;0.10;;;;;;;;;;4180347;28;20045;-40
2022/05/18 01:11:17;;;;;;;0.10;0.10;;;;;;;;;;4180184;28;20048;-41
2022/05/18 01:13:18;;;;;;;0.10;0.10;;;;;;;;;;4180205;28;20127;-42
2022/05/18 01:15:20;;;;;;;0.30;0.10;;;;;;;;;;4179766;28;20084;-40
2022/05/18 01:17:23;;;;;;;0.00;0.00;;;;;;;;;;4179955;28;20440;-41
2022/05/18 01:19:38;;;;;;;0.00;0.00;;;;;;;;;;4179994;28;20099;-39
2022/05/18 01:21:47;;;;;;;0.10;0.10;;;;;;;;;;4179985;28;20496;-42
2022/05/18 01:23:54;;;;;;;0.17;0.17;;;;;;;;;;4179807;28;20094;-42
2022/05/18 01:26:14;;;;;;;0.10;0.10;;;;;;;;;;4179947;28;20447;-40
2022/05/18 01:28:15;;;;;;;0.10;0.08;;;;;;;;;;4179908;28;20083;-42
2022/05/18 01:30:16;;;;;;;0.10;0.10;;;;;;;;;;4179478;28;20053;-42
2022/05/18 01:32:17;;;;;;;0.30;0.10;;;;;;;;;;4179860;28;20045;-41
2022/05/18 01:34:21;;;;;;;0.10;0.00;;;;;;;;;;4179685;28;20122;-40
2022/05/18 01:36:22;;;;;;;0.10;0.10;;;;;;;;;;4179983;28;20097;-42
2022/05/18 01:38:23;;;;;;;0.15;0.10;;;;;;;;;;4180064;28;20548;-41
2022/05/18 01:40:38;;;;;;;0.00;0.00;;;;;;;;;;4179904;28;20057;-38
2022/05/18 01:42:44;;;;;;;0.40;0.10;;;;;;;;;;4180105;28;20048;-41
2022/05/18 01:44:45;;;;;;;0.20;0.10;;;;;;;;;;4179236;28;20100;-41
2022/05/18 01:46:48;;;;;;;0.30;0.10;;;;;;;;;;4179589;28;20057;-40
2022/05/18 01:48:50;;;;;;;0.10;0.10;;;;;;;;;;4179533;28;20393;-41
2022/05/18 01:50:52;;;;;;;0.10;0.10;;;;;;;;;;4179541;28;20049;-42
2022/05/18 01:52:53;;;;;;;0.13;0.10;;;;;;;;;;4194742;28;20049;-40
2022/05/18 01:54:54;;;;;;;0.10;0.10;;;;;;;;;;4179477;28;20041;-41
2022/05/18 01:56:57;;;;;;;0.17;0.10;;;;;;;;;;4179422;28;20140;-41
2022/05/18 01:58:58;;;;;;;0.10;0.10;;;;;;;;;;4179026;28;20456;-43
2022/05/18 02:01:00;;;;;;;0.20;0.10;;;;;;;;;;4179442;28;20052;-40
2022/05/18 02:03:02;;;;;;;0.10;0.10;;;;;;;;;;4179371;28;20053;-41
2022/05/18 02:05:03;;;;;;;0.00;0.00;;;;;;;;;;4177774;28;20512;-40
2022/05/18 02:07:04;;;;;;;0.20;0.10;;;;;;;;;;4179516;28;20053;-41
2022/05/18 02:09:05;;;;;;;0.00;0.00;;;;;;;;;;4179711;28;20198;-42
2022/05/18 02:11:11;;;;;;;0.08;0.08;;;;;;;;;;4179502;28;20095;-39
2022/05/18 02:13:12;;;;;;;0.00;0.00;;;;;;;;;;4179500;28;20075;-42
2022/05/18 02:15:13;;;;;;;0.03;0.03;;;;;;;;;;4178932;28;20481;-40
2022/05/18 02:17:14;;;;;;;0.20;0.10;;;;;;;;;;4178822;28;20118;-41
2022/05/18 02:19:16;;;;;;;0.03;0.00;;;;;;;;;;4179212;28;20358;-41
2022/05/18 02:21:17;;;;;;;0.10;0.10;;;;;;;;;;4194558;28;20056;-42
2022/05/18 02:23:18;;;;;;;0.00;0.00;;;;;;;;;;4179494;28;20084;-41
2022/05/18 02:25:19;;;;;;;0.13;0.10;;;;;;;;;;4179109;28;20053;-41
2022/05/18 02:27:20;;;;;;;0.10;0.10;;;;;;;;;;4178978;28;20102;-41
2022/05/18 02:29:21;;;;;;;0.10;0.10;;;;;;;;;;4178207;28;20084;-40
2022/05/18 02:31:22;;;;;;;0.15;0.10;;;;;;;;;;4179121;28;20084;-42
2022/05/18 02:33:23;;;;;;;0.10;0.00;;;;;;;;;;4179254;28;20087;-42
2022/05/18 02:35:24;;;;;;;0.20;0.00;;;;;;;;;;4178941;28;20099;-42
2022/05/18 02:37:26;;;;;;;0.10;0.10;;;;;;;;;;4179413;28;20094;-41
2022/05/18 02:39:27;;;;;;;0.10;0.10;;;;;;;;;;4178955;28;20045;-42
2022/05/18 02:41:28;;;;;;;0.20;0.10;;;;;;;;;;4179072;28;20122;-41
2022/05/18 02:43:29;;;;;;;0.10;0.10;;;;;;;;;;4179035;28;20095;-41
2022/05/18 02:45:30;;;;;;;0.10;0.05;;;;;;;;;;4178753;28;20053;-41
2022/05/18 02:47:32;;;;;;;0.28;0.10;;;;;;;;;;4177223;28;20051;-42
2022/05/18 02:49:33;;;;;;;0.00;0.00;;;;;;;;;;4176779;28;20424;-39
2022/05/18 02:51:34;;;;;;;0.00;0.00;;;;;;;;;;4176274;28;20049;-42
2022/05/18 02:53:35;;;;;;;0.00;0.00;;;;;;;;;;4177500;28;20463;-41
2022/05/18 02:57:55;;;;;;;1.15;0.10;;;;;;;;;;4176347;28;20072;-41
2022/05/18 02:59:56;;;;;;;0.10;0.10;;;;;;;;;;4169191;28;20103;-42
2022/05/18 03:01:58;;;;;;;0.03;0.00;;;;;;;;;;4160707;28;20465;-39
2022/05/18 03:03:58;;;;;;;0.00;0.00;;;;;;;;;;4161310;28;20054;-40
2022/05/18 03:05:59;;;;;;;0.10;0.10;;;;;;;;;;4162100;28;20133;-40
2022/05/18 03:08:00;;;;;;;0.20;0.10;;;;;;;;;;4162517;28;20140;-41
2022/05/18 03:10:01;;;;;;;0.10;0.10;;;;;;;;;;4162244;28;20045;-40
2022/05/18 03:12:03;;;;;;;0.10;0.10;;;;;;;;;;4162361;28;20081;-41
2022/05/18 03:14:04;;;;;;;0.13;0.10;;;;;;;;;;4161893;28;20042;-41
2022/05/18 03:16:05;;;;;;;0.08;0.08;;;;;;;;;;4162623;28;20045;-42
2022/05/18 03:18:07;;;;;;;0.10;0.10;;;;;;;;;;4162544;28;20053;-39
2022/05/18 03:20:08;;;;;;;0.10;0.10;;;;;;;;;;4162282;28;20489;-41
2022/05/18 03:24:36;;;;;;;0.10;0.08;;;;;;;;;;4161065;28;20099;-41
2022/05/18 03:26:37;;;;;;;0.45;0.03;;;;;;;;;;4162317;28;20104;-40
2022/05/18 03:28:39;;;;;;;0.10;0.10;;;;;;;;;;4162003;28;20440;-43
2022/05/18 03:30:41;;;;;;;0.00;0.00;;;;;;;;;;4162451;28;20397;-40
2022/05/18 03:32:42;;;;;;;0.22;0.00;;;;;;;;;;4165537;28;20040;-43
2022/05/18 03:34:42;;;;;;;0.47;0.28;;;;;;;;;;4177179;28;20196;-43
2022/05/18 03:36:43;;;;;;;0.00;0.00;;;;;;;;;;4178870;28;20103;-39
2022/05/18 03:38:45;;;;;;;0.10;0.10;;;;;;;;;;4178547;28;20354;-40
2022/05/18 03:40:46;;;;;;;0.22;0.00;;;;;;;;;;4177234;28;20045;-42
2022/05/18 03:42:47;;;;;;;0.10;0.10;;;;;;;;;;4181802;28;20049;-42
2022/05/18 03:44:48;;;;;;;0.00;0.00;;;;;;;;;;4181182;28;20215;-42
2022/05/18 03:46:49;;;;;;;0.15;0.10;;;;;;;;;;4181316;28;20057;-41
2022/05/18 03:48:50;;;;;;;0.20;0.10;;;;;;;;;;4181193;28;20044;-42
2022/05/18 03:50:52;;;;;;;0.10;0.10;;;;;;;;;;4181283;28;20350;-42
2022/05/18 03:52:54;;;;;;;0.10;0.10;;;;;;;;;;4181342;28;20060;-41
2022/05/18 03:54:55;;;;;;;0.20;0.10;;;;;;;;;;4181414;28;20106;-40
2022/05/18 03:56:56;;;;;;;0.10;0.05;;;;;;;;;;4180883;28;20053;-38
2022/05/18 03:58:59;;;;;;;0.17;0.03;;;;;;;;;;4180722;28;20053;-42
2022/05/18 04:01:00;;;;;;;0.10;0.10;;;;;;;;;;4181224;28;20048;-40
2022/05/18 04:03:02;;;;;;;0.08;0.00;;;;;;;;;;4170710;28;20053;-38
2022/05/18 04:05:03;;;;;;;0.10;0.10;;;;;;;;;;4162573;28;20053;-40
2022/05/18 04:07:04;;;;;;;0.10;0.10;;;;;;;;;;4177786;28;20432;-39
2022/05/18 04:09:06;;;;;;;0.10;0.10;;;;;;;;;;4162661;28;20103;-39
2022/05/18 04:11:07;;;;;;;0.00;0.00;;;;;;;;;;4194236;28;20219;-40
2022/05/18 04:13:11;;;;;;;0.20;0.10;;;;;;;;;;4162650;28;20386;-41
2022/05/18 04:15:16;;;;;;;0.10;0.03;;;;;;;;;;4161868;28;20500;-41
2022/05/18 04:17:17;;;;;;;0.00;0.00;;;;;;;;;;4162499;28;20558;-41
2022/05/18 04:19:18;;;;;;;0.10;0.10;;;;;;;;;;4177506;28;20057;-38
2022/05/18 04:21:19;;;;;;;0.00;0.00;;;;;;;;;;4162984;28;20123;-40
2022/05/18 04:23:20;;;;;;;0.03;0.03;;;;;;;;;;4162753;28;20061;-43
2022/05/18 04:25:25;;;;;;;0.08;0.00;;;;;;;;;;4175567;28;20057;-43
2022/05/18 04:27:26;;;;;;;0.20;0.10;;;;;;;;;;4178520;28;20114;-41
2022/05/18 04:29:26;;;;;;;0.10;0.10;;;;;;;;;;4178470;28;20052;-42
2022/05/18 04:31:27;;;;;;;0.10;0.10;;;;;;;;;;4178134;28;20064;-42
2022/05/18 04:33:29;;;;;;;0.08;0.03;;;;;;;;;;4178819;28;20522;-42
2022/05/18 04:35:30;;;;;;;0.10;0.10;;;;;;;;;;4178626;28;20492;-42
2022/05/18 04:37:31;;;;;;;0.00;0.00;;;;;;;;;;4177500;28;20048;-43
2022/05/18 04:39:32;;;;;;;0.10;0.10;;;;;;;;;;4176611;28;20063;-39
2022/05/18 04:41:33;;;;;;;0.10;0.10;;;;;;;;;;4210809;28;20093;-41
2022/05/18 04:43:34;;;;;;;0.10;0.10;;;;;;;;;;4178982;28;20060;-42
2022/05/18 04:45:36;;;;;;;0.20;0.10;;;;;;;;;;4178134;28;20102;-42
2022/05/18 04:47:37;;;;;;;0.00;0.00;;;;;;;;;;4178603;28;20492;-42
2022/05/18 04:49:38;;;;;;;0.03;0.03;;;;;;;;;;4178495;28;20090;-41
2022/05/18 04:51:39;;;;;;;0.08;0.08;;;;;;;;;;4190834;28;20044;-39
2022/05/18 04:53:40;;;;;;;0.00;0.00;;;;;;;;;;4197028;28;20048;-42
2022/05/18 04:55:41;;;;;;;0.00;0.00;;;;;;;;;;4197161;28;20513;-39
2022/05/18 04:57:42;;;;;;;0.10;0.10;;;;;;;;;;4197141;28;20066;-42
2022/05/18 04:59:43;;;;;;;0.00;0.00;;;;;;;;;;4222524;28;20109;-42
2022/05/18 05:01:44;;;;;;;0.20;0.08;;;;;;;;;;4163789;28;20651;-41
2022/05/18 05:03:45;;;;;;;0.20;0.20;;;;;;;;;;4161967;28;20064;-41
2022/05/18 05:05:46;;;;;;;0.00;0.00;;;;;;;;;;4161980;28;20053;-41
2022/05/18 05:07:48;;;;;;;0.03;0.03;;;;;;;;;;4161711;28;20061;-42
2022/05/18 05:09:48;;;;;;;0.47;0.10;;;;;;;;;;4161734;28;20144;-41
2022/05/18 05:11:53;;;;;;;0.47;0.10;;;;;;;;;;4161605;28;20053;-41
2022/05/18 05:13:54;;;;;;;0.10;0.10;;;;;;;;;;4160938;28;20049;-41
2022/05/18 05:16:05;;;;;;;0.85;0.10;;;;;;;;;;4161652;28;20056;-39
2022/05/18 05:18:06;;;;;;;0.40;0.20;;;;;;;;;;4161341;28;20057;-39
2022/05/18 05:20:08;;;;;;;0.20;0.10;;;;;;;;;;4161285;28;20111;-41
2022/05/18 05:22:10;;;;;;;0.40;0.20;;;;;;;;;;4161525;28;20053;-38
2022/05/18 05:24:12;;;;;;;0.32;0.10;;;;;;;;;;4161186;28;20059;-42
2022/05/18 05:26:13;;;;;;;0.20;0.20;;;;;;;;;;4161177;28;20076;-40
2022/05/18 05:28:14;;;;;;;0.38;0.17;;;;;;;;;;4161247;28;20057;-37
2022/05/18 05:30:15;;;;;;;0.28;0.15;;;;;;;;;;4161149;28;20086;-42
2022/05/18 05:32:16;;;;;;;0.40;0.10;;;;;;;;;;4161241;28;20100;-40
2022/05/18 05:34:17;;;;;;;0.75;0.30;;;;;;;;;;4177719;28;20049;-41
2022/05/18 05:36:18;;;;;;;0.25;0.20;;;;;;;;;;4177656;28;20044;-41
2022/05/18 05:38:19;;;;;;;0.20;0.20;;;;;;;;;;4177989;28;20065;-41
2022/05/18 05:40:20;;;;;;;0.95;0.43;;;;;;;;;;4177364;28;20052;-39
2022/05/18 05:42:22;;;;;;;0.20;0.20;;;;;;;;;;4177870;28;20053;-38
2022/05/18 05:44:23;;;;;;;0.20;0.20;;;;;;;;;;4176850;28;20099;-42
2022/05/18 05:46:27;;;;;;;1.30;0.25;;;;;;;;;;4177417;28;20057;-41
2022/05/18 05:48:30;;;;;;;0.20;0.20;;;;;;;;;;4176912;28;20056;-39
2022/05/18 05:50:31;;;;;;;0.10;0.10;;;;;;;;;;4177211;28;20067;-42
2022/05/18 05:52:32;;;;;;;1.00;0.20;;;;;;;;;;4177513;28;20053;-41
2022/05/18 05:54:33;;;;;;;0.50;0.20;;;;;;;;;;4177481;28;20503;-41
2022/05/18 05:56:34;;;;;;;0.35;0.28;;;;;;;;;;4175923;28;20540;-40
2022/05/18 05:58:36;;;;;;;0.52;0.30;;;;;;;;;;4177280;28;20048;-41
2022/05/18 06:00:37;;;;;;;2.10;0.35;;;;;;;;;;4175669;28;20056;-42
2022/05/18 06:02:37;;;;;;;0.45;0.20;;;;;;;;;;4178026;28;20151;-40
2022/05/18 06:04:39;;;;;;;0.82;0.28;;;;;;;;;;4175970;28;20056;-41
2022/05/18 06:06:40;;;;;;;0.50;0.40;;;;;;;;;;4178075;28;20056;-39
2022/05/18 06:08:41;;;;;;;1.45;0.20;;;;;;;;;;4183548;28;20055;-40
2022/05/18 06:10:42;;;;;;;1.13;0.30;;;;;;;;;;4182708;28;20493;-39
2022/05/18 06:12:43;;;;;;;0.30;0.17;;;;;;;;;;4180261;28;20075;-42
2022/05/18 06:14:44;;;;;;;1.05;0.30;;;;;;;;;;4176710;28;20803;-37
2022/05/18 06:16:49;;;;;;;0.30;0.30;;;;;;;;;;4181640;28;20094;-40
2022/05/18 06:18:50;;;;;;;0.52;0.43;;;;;;;;;;4180446;28;20055;-42
2022/05/18 06:20:51;;;;;;;2.70;0.52;;;;;;;;;;4168527;28;20073;-41
2022/05/18 06:22:52;;;;;;;0.40;0.30;;;;;;;;;;4170112;28;21464;-42
2022/05/18 06:24:53;;;;;;;0.98;0.52;;;;;;;;;;4165432;28;20049;-39
2022/05/18 06:26:55;;;;;;;1.27;0.73;;;;;;;;;;4168076;28;20079;-41
2022/05/18 06:28:56;;;;;;;0.40;0.30;;;;;;;;;;4168454;28;21033;-41
2022/05/18 06:30:57;;;;;;;1.30;0.55;;;;;;;;;;4160205;28;20052;-42
2022/05/18 06:32:58;;;;;;;0.82;0.32;;;;;;;;;;4178321;28;20048;-40
2022/05/18 06:34:59;;;;;;;0.80;0.40;;;;;;;;;;4167286;28;20079;-38
2022/05/18 06:37:00;;;;;;;0.70;0.40;;;;;;;;;;4173848;28;20459;-40
2022/05/18 06:39:02;;;;;;;1.48;0.70;;;;;;;;;;4176160;28;20591;-42
2022/05/18 06:41:22;;;;;;;1.40;0.40;;;;;;;;;;4171978;28;20579;-41
2022/05/18 06:43:23;;;;;;;1.45;0.65;;;;;;;;;;4169698;28;20098;-40
2022/05/18 06:45:25;;;;;;;1.95;0.40;;;;;;;;;;4187125;28;20102;-41
2022/05/18 06:47:26;;;;;;;1.90;0.47;;;;;;;;;;4165872;28;20055;-40
2022/05/18 06:49:28;;;;;;;0.68;0.30;;;;;;;;;;4161712;28;20122;-41
2022/05/18 06:51:30;;;;;;;4.10;0.60;;;;;;;;;;4157296;28;20566;-42
2022/05/18 06:53:31;;;;;;;3.08;0.45;;;;;;;;;;4155600;28;20109;-42
2022/05/18 06:55:32;;;;;;;2.22;0.38;;;;;;;;;;4162186;28;20053;-41
2022/05/18 06:57:33;;;;;;;0.90;0.38;;;;;;;;;;4163637;28;20477;-42
2022/05/18 06:59:34;;;;;;;2.10;0.50;;;;;;;;;;4164302;28;20558;-41
2022/05/18 07:01:36;;;;;;;1.40;0.30;;;;;;;;;;4161134;28;20099;-41
2022/05/18 07:03:37;;;;;;;2.15;0.50;;;;;;;;;;4152831;28;20060;-42
2022/05/18 07:05:38;;;;;;;0.65;0.30;;;;;;;;;;4153354;28;20134;-42
2022/05/18 07:07:39;;;;;;;1.63;0.40;;;;;;;;;;4165417;28;20098;-38
2022/05/18 07:09:40;;;;;;;3.45;0.45;;;;;;;;;;4156928;28;20060;-42
2022/05/18 07:11:42;;;;;;;2.63;0.40;;;;;;;;;;4151630;28;20049;-41
2022/05/18 07:13:44;;;;;;;3.22;0.93;;;;;;;;;;4157865;28;20103;-41
2022/05/18 07:15:45;;;;;;;3.80;0.60;;;;;;;;;;4157203;28;20063;-39
2022/05/18 07:17:47;;;;;;;2.92;0.50;;;;;;;;;;4161800;28;20060;-42
2022/05/18 07:19:49;;;;;;;1.90;0.55;;;;;;;;;;4151761;28;21058;-42
2022/05/18 07:21:50;;;;;;;2.30;0.57;;;;;;;;;;4155564;28;20052;-40
2022/05/18 07:23:52;;;;;;;3.63;0.40;;;;;;;;;;4140523;28;20118;-42
2022/05/18 07:25:54;;;;;;;3.75;0.60;;;;;;;;;;4145952;28;20057;-40
2022/05/18 07:27:54;;;;;;;0.60;0.20;;;;;;;;;;4143769;28;20153;-42
2022/05/18 07:29:55;;;;;;;0.70;0.40;;;;;;;;;;4142584;28;20053;-41
2022/05/18 07:32:08;;;;;;;2.33;0.40;;;;;;;;;;4132304;28;21328;-42
2022/05/18 07:34:09;;;;;;;0.93;0.28;;;;;;;;;;4152216;28;20500;-41
2022/05/18 07:36:10;;;;;;;2.15;0.50;;;;;;;;;;4154036;28;21054;-40
2022/05/18 07:38:11;;;;;;;1.80;0.35;;;;;;;;;;4149707;28;20861;-42
2022/05/18 07:40:13;;;;;;;1.75;0.43;;;;;;;;;;4158641;28;20053;-42
2022/05/18 07:42:14;;;;;;;0.50;0.30;;;;;;;;;;4159877;28;20048;-41
2022/05/18 07:44:15;;;;;;;0.88;0.60;;;;;;;;;;4158672;28;20057;-42
2022/05/18 07:46:16;;;;;;;0.65;0.40;;;;;;;;;;4154229;28;20053;-41
2022/05/18 07:48:17;;;;;;;1.00;0.55;;;;;;;;;;4147297;28;20126;-42
2022/05/18 07:50:19;;;;;;;1.77;0.28;;;;;;;;;;4152091;28;20048;-41
2022/05/18 07:52:20;;;;;;;3.47;0.30;;;;;;;;;;4149339;28;20049;-41
2022/05/18 07:54:20;;;;;;;0.88;0.40;;;;;;;;;;4146769;28;20100;-41
2022/05/18 07:56:21;;;;;;;2.30;0.55;;;;;;;;;;4152873;28;20051;-40
2022/05/18 07:58:23;;;;;;;0.60;0.40;;;;;;;;;;4144621;28;20053;-42
2022/05/18 08:00:24;;;;;;;2.60;0.40;;;;;;;;;;4138783;28;20415;-39
2022/05/18 08:02:27;;;;;;;1.10;0.57;;;;;;;;;;4151548;28;20049;-41
2022/05/18 08:04:28;;;;;;;2.58;0.40;;;;;;;;;;4151721;28;20056;-40
2022/05/18 08:06:29;;;;;;;3.03;0.75;;;;;;;;;;4144116;28;20487;-42
2022/05/18 08:08:30;;;;;;;1.63;0.40;;;;;;;;;;4143667;28;20103;-42
2022/05/18 08:15:12;;;;;;;1.25;0.47;;;;;;;;;;4146927;28;21281;-42
2022/05/18 08:17:13;;;;;;;0.85;0.30;;;;;;;;;;4163227;28;20106;-41
2022/05/18 08:19:15;;;;;;;2.97;0.30;;;;;;;;;;4155798;28;20612;-41
2022/05/18 08:21:17;;;;;;;2.83;0.57;;;;;;;;;;4150447;28;20060;-42
2022/05/18 08:23:19;;;;;;;1.50;0.40;;;;;;;;;;4142741;28;20049;-41
2022/05/18 08:25:20;;;;;;;0.77;0.40;;;;;;;;;;4154239;28;20055;-42
2022/05/18 08:27:21;;;;;;;0.30;0.30;;;;;;;;;;4153622;28;20139;-42
2022/05/18 08:29:22;;;;;;;2.58;0.30;;;;;;;;;;4149227;28;20456;-40
2022/05/18 08:31:23;;;;;;;1.10;0.40;;;;;;;;;;4157875;28;20122;-41
2022/05/18 08:33:25;;;;;;;1.05;0.40;;;;;;;;;;4152737;28;20538;-42
2022/05/18 08:35:27;;;;;;;1.20;0.20;;;;;;;;;;4143340;28;20053;-41
2022/05/18 08:37:28;;;;;;;0.85;0.32;;;;;;;;;;4151103;28;20056;-40
2022/05/18 08:39:29;;;;;;;2.15;0.30;;;;;;;;;;4161270;28;20177;-39
2022/05/18 08:41:34;;;;;;;1.73;0.40;;;;;;;;;;4147023;28;20057;-38
2022/05/18 08:43:37;;;;;;;1.02;0.50;;;;;;;;;;4145534;28;20420;-40
2022/05/18 08:45:42;;;;;;;0.80;0.52;;;;;;;;;;4144297;28;20107;-39
2022/05/18 08:47:48;;;;;;;0.43;0.25;;;;;;;;;;4141865;28;20448;-39
2022/05/18 08:49:54;;;;;;;1.50;0.40;;;;;;;;;;4145341;28;20052;-38
2022/05/18 08:52:13;;;;;;;1.73;0.60;;;;;;;;;;4143703;28;20053;-40
2022/05/18 08:54:18;;;;;;;0.60;0.50;;;;;;;;;;4146485;28;20068;-40
2022/05/18 08:56:45;;;;;;;1.20;0.38;;;;;;;;;;4147019;28;20718;-40
2022/05/18 08:58:48;;;;;;;0.70;0.40;;;;;;;;;;4155742;28;20048;-39
2022/05/18 09:01:13;;;;;;;0.50;0.30;;;;;;;;;;4150965;28;20057;-38
2022/05/18 09:03:17;;;;;;;2.10;0.45;;;;;;;;;;4148776;28;20052;-38
2022/05/18 09:05:32;;;;;;;1.25;0.50;;;;;;;;;;4153259;28;20083;-42
2022/05/18 09:07:34;;;;;;;0.82;0.20;;;;;;;;;;4158492;28;20074;-40
2022/05/18 09:10:12;;;;;;;0.75;0.40;;;;;;;;;;4160437;28;20048;-39
2022/05/18 09:12:12;;;;;;;2.55;0.43;;;;;;;;;;4150316;28;20444;-40
2022/05/18 09:14:17;;;;;;;0.90;0.45;;;;;;;;;;4152912;28;20527;-42
2022/05/18 09:16:24;;;;;;;2.22;0.70;;;;;;;;;;4147156;28;20511;-39
2022/05/18 09:18:32;;;;;;;1.85;0.47;;;;;;;;;;4149450;28;20048;-39
2022/05/18 09:20:33;;;;;;;3.45;0.55;;;;;;;;;;4155774;28;20067;-42
2022/05/18 09:22:53;;;;;;;1.13;0.45;;;;;;;;;;4156077;28;20119;-42
2022/05/18 09:25:01;;;;;;;1.73;0.40;;;;;;;;;;4150765;28;20055;-41
2022/05/18 09:27:18;;;;;;;0.93;0.45;;;;;;;;;;4149957;28;20079;-44
2022/05/18 09:29:29;;;;;;;1.38;0.50;;;;;;;;;;4148884;28;20049;-38
2022/05/18 09:31:30;;;;;;;0.65;0.30;;;;;;;;;;4152256;28;20056;-43
2022/05/18 09:33:42;;;;;;;0.75;0.32;;;;;;;;;;4146393;28;20110;-39
2022/05/18 09:35:52;;;;;;;1.38;0.25;;;;;;;;;;4160375;28;20746;-42
2022/05/18 09:38:01;;;;;;;0.57;0.40;;;;;;;;;;4146461;28;20053;-41
2022/05/18 09:40:06;;;;;;;0.63;0.40;;;;;;;;;;4154948;28;20403;-41
2022/05/18 09:42:11;;;;;;;0.63;0.50;;;;;;;;;;4154754;28;20052;-39
2022/05/18 09:44:18;;;;;;;1.33;0.40;;;;;;;;;;4146392;28;20217;-42
2022/05/18 09:46:21;;;;;;;0.57;0.50;;;;;;;;;;4154182;28;20061;-40
2022/05/18 09:48:42;;;;;;;0.50;0.40;;;;;;;;;;4156919;28;22119;-41
2022/05/18 09:50:45;;;;;;;0.70;0.30;;;;;;;;;;4150325;28;20106;-43
2022/05/18 09:52:47;;;;;;;1.23;0.35;;;;;;;;;;4150855;28;21503;-40
2022/05/18 09:54:50;;;;;;;0.88;0.40;;;;;;;;;;4156097;28;20052;-43
2022/05/18 09:56:55;;;;;;;1.80;0.70;;;;;;;;;;4156443;28;20064;-41
2022/05/18 09:58:59;;;;;;;0.43;0.40;;;;;;;;;;4150697;28;20126;-41
2022/05/18 10:08:13;;;;;;;1.15;0.50;;;;;;;;;;4122424;28;20342;-43
2022/05/18 10:10:22;;;;;;;1.33;0.38;;;;;;;;;;4149867;28;20111;-41
2022/05/18 10:12:24;;;;;;;1.13;0.45;;;;;;;;;;4174781;28;20047;-40
2022/05/18 10:14:29;;;;;;;0.77;0.43;;;;;;;;;;4143179;28;20053;-42
2022/05/18 10:16:31;;;;;;;0.28;0.22;;;;;;;;;;4133902;28;20053;-42
2022/05/18 10:18:41;;;;;;;1.88;0.40;;;;;;;;;;4148455;28;20114;-42
2022/05/18 10:20:42;;;;;;;1.88;0.30;;;;;;;;;;4156024;28;20056;-38
2022/05/18 10:22:44;;;;;;;1.42;0.40;;;;;;;;;;4161167;28;20049;-35
2022/05/18 10:24:50;;;;;;;0.55;0.40;;;;;;;;;;4165214;28;20163;-38
2022/05/18 10:27:05;;;;;;;1.38;0.40;;;;;;;;;;4158359;28;20093;-43
2022/05/18 10:29:12;;;;;;;0.70;0.20;;;;;;;;;;4159772;28;21371;-42
2022/05/18 10:31:25;;;;;;;0.65;0.40;;;;;;;;;;4161116;28;20151;-42
2022/05/18 10:33:32;;;;;;;1.15;0.50;;;;;;;;;;4148853;28;20142;-44
2022/05/18 10:35:35;;;;;;;1.65;0.40;;;;;;;;;;4157198;28;20053;-43
2022/05/18 10:37:38;;;;;;;0.70;0.50;;;;;;;;;;4154981;28;20098;-43
2022/05/18 10:39:44;;;;;;;0.40;0.32;;;;;;;;;;4156078;28;20149;-41
2022/05/18 10:41:47;;;;;;;1.95;0.68;;;;;;;;;;4178452;28;20057;-41
2022/05/18 10:43:53;;;;;;;0.98;0.40;;;;;;;;;;4150875;28;20052;-40
2022/05/18 10:45:56;;;;;;;0.95;0.52;;;;;;;;;;4154657;28;20060;-42
2022/05/18 10:48:02;;;;;;;0.75;0.50;;;;;;;;;;4161432;28;20158;-40
2022/05/18 10:50:24;;;;;;;1.30;0.52;;;;;;;;;;4157892;28;20515;-42
2022/05/18 10:52:30;;;;;;;0.50;0.30;;;;;;;;;;4152933;28;20428;-42
2022/05/18 10:54:31;;;;;;;0.95;0.30;;;;;;;;;;4156097;28;20226;-43
2022/05/18 10:56:32;;;;;;;0.80;0.47;;;;;;;;;;4156733;28;20442;-39
2022/05/18 10:58:39;;;;;;;0.60;0.45;;;;;;;;;;4151059;28;20053;-41
2022/05/18 11:00:55;;;;;;;1.10;0.50;;;;;;;;;;4148553;28;20086;-40
2022/05/18 11:03:20;;;;;;;0.88;0.45;;;;;;;;;;4141057;28;21526;-40
2022/05/18 11:05:25;;;;;;;0.45;0.40;;;;;;;;;;4156652;28;20393;-40
2022/05/18 11:07:27;;;;;;;1.40;0.35;;;;;;;;;;4145909;28;20057;-42
2022/05/18 11:09:30;;;;;;;0.85;0.50;;;;;;;;;;4146051;28;20056;-43
2022/05/18 11:11:50;;;;;;;1.25;0.52;;;;;;;;;;4152502;28;20083;-39
2022/05/18 11:14:10;;;;;;;1.23;0.40;;;;;;;;;;4152608;28;20044;-41
2022/05/18 11:16:11;;;;;;;;;;;;;;;;;;4167557;28;20592;-40
2022/05/18 11:18:41;;;;;;;0.68;0.50;;;;;;;;;;4148845;28;20034;-41
2022/05/18 11:21:03;;;;;;;1.00;0.40;;;;;;;;;;4130218;28;23033;-41
2022/05/18 11:23:26;;;;;;;0.57;0.30;;;;;;;;;;4153665;28;20123;-40
2022/05/18 11:25:43;;;;;;;0.68;0.38;;;;;;;;;;4152333;28;25309;-41
2022/05/18 11:27:48;;;;;;;1.38;0.60;;;;;;;;;;4144376;28;20126;-41
2022/05/18 11:29:56;;;;;;;0.90;0.40;;;;;;;;;;4149970;28;20087;-40
2022/05/18 11:32:17;;;;;;;1.55;0.57;;;;;;;;;;4142697;28;20441;-42
2022/05/18 11:34:36;;;;;;;2.30;0.32;;;;;;;;;;4145699;28;20743;-43
2022/05/18 11:37:00;;;;;;;0.85;0.43;;;;;;;;;;4156477;28;20060;-42
2022/05/18 11:39:04;;;;;;;0.95;0.40;;;;;;;;;;4158062;28;20056;-38
2022/05/18 11:41:16;;;;;;;0.70;0.30;;;;;;;;;;4146785;28;20622;-36
2022/05/18 11:43:28;;;;;;;1.02;0.50;;;;;;;;;;4153060;28;20061;-39
2022/05/18 11:45:54;;;;;;;0.70;0.40;;;;;;;;;;4148466;28;20099;-38
2022/05/18 11:48:07;;;;;;;1.10;0.60;;;;;;;;;;4154430;28;20598;-36
2022/05/18 11:50:23;;;;;;;0.88;0.40;;;;;;;;;;4153450;28;20139;-36
2022/05/18 11:52:45;;;;;;;0.55;0.30;;;;;;;;;;4153847;28;20742;-38
2022/05/18 11:55:01;;;;;;;0.80;0.30;;;;;;;;;;4151099;28;20083;-40
2022/05/18 11:57:17;;;;;;;2.40;0.40;;;;;;;;;;4156232;28;20049;-39
2022/05/18 11:59:44;;;;;;;2.63;0.30;;;;;;;;;;4163254;28;21950;-39
2022/05/18 12:01:45;;;;;;;0.52;0.40;;;;;;;;;;4149778;28;20809;-43
2022/05/18 12:04:04;;;;;;;0.43;0.20;;;;;;;;;;4148323;28;20936;-43
2022/05/18 12:06:24;;;;;;;1.52;0.40;;;;;;;;;;4141755;28;20053;-43
2022/05/18 12:08:43;;;;;;;1.02;0.30;;;;;;;;;;4146047;28;20115;-43
2022/05/18 12:10:49;;;;;;;0.90;0.50;;;;;;;;;;4145077;28;20575;-44
2022/05/18 12:13:03;;;;;;;1.42;0.40;;;;;;;;;;4151436;28;20044;-43
2022/05/18 12:15:14;;;;;;;2.08;0.80;;;;;;;;;;4147587;28;20053;-44
2022/05/18 12:17:20;;;;;;;0.70;0.35;;;;;;;;;;4151213;28;20103;-43
2022/05/18 12:19:22;;;;;;;0.82;0.60;;;;;;;;;;4153763;28;20095;-43
2022/05/18 12:21:28;;;;;;;0.47;0.40;;;;;;;;;;4157064;28;20118;-42
2022/05/18 12:23:35;;;;;;;0.90;0.40;;;;;;;;;;4156023;28;20060;-43
2022/05/18 12:25:37;;;;;;;1.23;0.38;;;;;;;;;;4156589;28;20052;-43
2022/05/18 12:27:39;;;;;;;2.88;0.50;;;;;;;;;;4159652;28;20053;-43
2022/05/18 12:29:40;;;;;;;0.57;0.32;;;;;;;;;;4151237;28;20087;-43
2022/05/18 12:31:42;;;;;;;0.47;0.30;;;;;;;;;;4144956;28;20192;-43
2022/05/18 12:34:04;;;;;;;1.23;0.40;;;;;;;;;;4179619;28;20048;-43
2022/05/18 12:36:12;;;;;;;0.43;0.32;;;;;;;;;;4156560;28;22049;-43
2022/05/18 12:38:25;;;;;;;1.60;0.30;;;;;;;;;;4151879;28;20049;-43
2022/05/18 12:40:26;;;;;;;1.38;0.40;;;;;;;;;;4153023;28;20111;-43
2022/05/18 12:42:28;;;;;;;0.90;0.40;;;;;;;;;;4152045;28;20056;-43